Time;durP1;ratioP1;P1;durP2;ratioP2;P2;SDS_P1;SDS_P2;PMS_P1;PMS_P2;Temp;Humidity;BMP_temperature;BMP_pressure;BME280_temperature;BME280_humidity;BME280_pressure;Samples;Min_cycle;Max_cycle;Signal;HPM_P1;HPM_P2
2023/12/10 00:00:58;;;;;;;25.65;12.55;;;23.60;99.90;;;;;;4973884;28;20039;-46
2023/12/10 00:03:24;;;;;;;26.15;13.18;;;23.60;99.90;;;;;;4974596;28;20023;-46
2023/12/10 00:05:50;;;;;;;22.95;13.00;;;23.60;99.90;;;;;;4974831;28;20394;-46
2023/12/10 00:08:15;;;;;;;26.80;13.23;;;23.60;99.90;;;;;;4973537;28;20023;-46
2023/12/10 00:10:42;;;;;;;24.27;13.07;;;23.60;99.90;;;;;;4974294;28;20034;-47
2023/12/10 00:13:09;;;;;;;21.48;12.35;;;23.60;99.90;;;;;;4973772;28;20081;-46
2023/12/10 00:15:35;;;;;;;;;;;23.60;99.90;;;;;;4971406;28;20037;-46
2023/12/10 00:18:02;;;;;;;22.13;13.10;;;23.60;99.90;;;;;;4965707;28;19906;-46
2023/12/10 00:20:27;;;;;;;23.02;11.90;;;23.60;99.90;;;;;;4961700;28;20019;-47
2023/12/10 00:22:53;;;;;;;18.83;10.70;;;23.50;99.90;;;;;;4969324;28;20019;-46
2023/12/10 00:25:19;;;;;;;20.00;10.43;;;23.50;99.90;;;;;;4974216;28;20500;-46
2023/12/10 00:27:45;;;;;;;19.48;11.80;;;23.50;99.90;;;;;;4972556;28;20046;-45
2023/12/10 00:30:11;;;;;;;18.55;10.43;;;23.60;99.90;;;;;;4974255;28;20407;-46
2023/12/10 00:32:37;;;;;;;18.60;10.05;;;23.60;99.90;;;;;;4973013;28;20030;-47
2023/12/10 00:35:03;;;;;;;16.40;8.95;;;23.50;99.90;;;;;;4973555;28;20094;-46
2023/12/10 00:37:29;;;;;;;13.55;7.85;;;23.50;99.90;;;;;;4974078;28;20027;-46
2023/12/10 00:39:55;;;;;;;18.83;8.68;;;23.50;99.90;;;;;;4974373;28;20049;-47
2023/12/10 00:42:21;;;;;;;18.08;9.68;;;23.50;99.90;;;;;;4973737;28;20022;-47
2023/12/10 00:44:47;;;;;;;14.55;6.90;;;23.50;99.90;;;;;;4984091;28;20100;-47
2023/12/10 00:47:12;;;;;;;18.55;8.90;;;23.50;99.90;;;;;;4988809;28;20022;-46
2023/12/10 00:49:38;;;;;;;12.55;7.57;;;23.40;99.90;;;;;;4988398;28;20054;-46
2023/12/10 00:52:04;;;;;;;11.38;7.32;;;23.40;99.90;;;;;;4984444;28;20030;-46
2023/12/10 00:54:32;;;;;;;13.15;6.88;;;23.40;99.90;;;;;;4980211;28;20018;-47
2023/12/10 00:56:59;;;;;;;13.10;6.95;;;23.40;99.90;;;;;;4992482;28;20042;-46
2023/12/10 00:59:25;;;;;;;11.80;6.82;;;23.40;99.90;;;;;;4992050;28;20138;-46
2023/12/10 01:01:52;;;;;;;11.93;7.35;;;23.40;99.90;;;;;;4992687;28;20531;-46
2023/12/10 01:04:18;;;;;;;15.00;6.55;;;23.40;99.90;;;;;;4986613;28;20098;-46
2023/12/10 01:06:43;;;;;;;11.52;6.22;;;23.40;99.90;;;;;;4982142;28;20105;-46
2023/12/10 01:09:09;;;;;;;12.30;6.85;;;23.40;99.90;;;;;;4983116;28;20383;-45
2023/12/10 01:11:35;;;;;;;9.88;5.65;;;23.40;99.90;;;;;;4973645;28;20103;-47
2023/12/10 01:14:03;;;;;;;7.60;4.90;;;23.40;99.90;;;;;;4973580;28;20380;-46
2023/12/10 01:16:29;;;;;;;7.93;4.93;;;23.30;99.90;;;;;;4973326;28;20046;-46
2023/12/10 01:18:55;;;;;;;10.35;5.28;;;23.30;99.90;;;;;;4973685;28;20157;-45
2023/12/10 01:21:21;;;;;;;9.18;5.40;;;23.30;99.90;;;;;;4973046;28;20383;-46
2023/12/10 01:23:49;;;;;;;8.98;5.35;;;23.30;99.90;;;;;;4973486;28;20033;-46
2023/12/10 01:26:15;;;;;;;9.40;5.40;;;23.30;99.90;;;;;;4973878;28;20038;-45
2023/12/10 01:28:41;;;;;;;9.77;4.63;;;23.30;99.90;;;;;;4973097;28;20074;-45
2023/12/10 01:31:07;;;;;;;7.57;4.55;;;23.30;99.90;;;;;;4973464;28;20031;-45
2023/12/10 01:33:33;;;;;;;6.82;4.30;;;23.30;99.90;;;;;;4973197;28;20452;-45
2023/12/10 01:35:58;;;;;;;7.63;4.35;;;23.20;99.90;;;;;;4973078;28;20402;-47
2023/12/10 01:38:24;;;;;;;8.30;4.50;;;23.30;99.90;;;;;;4973093;28;20044;-46
2023/12/10 01:40:50;;;;;;;7.28;4.30;;;23.30;99.90;;;;;;4973337;28;20033;-46
2023/12/10 01:43:17;;;;;;;6.55;4.72;;;23.30;99.90;;;;;;4972989;28;20019;-46
2023/12/10 01:45:50;;;;;;;8.07;3.83;;;23.20;99.90;;;;;;4973274;28;20019;-46
2023/12/10 01:48:20;;;;;;;7.97;4.40;;;23.20;99.90;;;;;;4988085;28;20458;-46
2023/12/10 01:50:46;;;;;;;7.82;3.63;;;23.20;99.90;;;;;;4972934;28;20023;-45
2023/12/10 01:53:13;;;;;;;8.95;3.58;;;23.20;99.90;;;;;;4973034;28;20498;-45
2023/12/10 01:55:41;;;;;;;5.78;3.50;;;23.20;99.90;;;;;;4973124;28;20037;-45
2023/12/10 01:58:07;;;;;;;7.68;3.28;;;23.20;99.90;;;;;;4972514;28;20030;-46
2023/12/10 02:00:33;;;;;;;5.75;3.63;;;23.20;99.90;;;;;;4973332;28;20117;-45
2023/12/10 02:03:00;;;;;;;5.20;3.35;;;23.20;99.90;;;;;;4983563;28;20523;-45
2023/12/10 02:05:26;;;;;;;5.38;2.90;;;23.20;99.90;;;;;;4972452;28;20027;-48
2023/12/10 02:07:52;;;;;;;6.07;2.95;;;23.20;99.90;;;;;;4973938;28;20027;-46
2023/12/10 02:10:19;;;;;;;4.80;2.53;;;23.20;99.90;;;;;;4976734;28;20101;-45
2023/12/10 02:12:47;;;;;;;6.72;3.15;;;23.10;99.90;;;;;;4976728;28;20058;-48
2023/12/10 02:15:16;;;;;;;4.70;2.63;;;23.10;99.90;;;;;;4976612;28;20027;-45
2023/12/10 02:17:42;;;;;;;5.03;3.15;;;23.10;99.90;;;;;;4976851;28;20035;-45
2023/12/10 02:20:14;;;;;;;5.28;3.00;;;23.10;99.90;;;;;;4976171;28;20015;-45
2023/12/10 02:23:24;;;;;;;5.45;2.65;;;23.10;99.90;;;;;;4976845;28;20029;-45
2023/12/10 02:25:50;;;;;;;5.18;2.65;;;23.10;99.90;;;;;;4956766;28;20045;-44
2023/12/10 02:28:22;;;;;;;4.07;2.35;;;23.10;99.90;;;;;;4978400;28;20031;-46
2023/12/10 02:30:48;;;;;;;5.03;2.70;;;23.10;99.90;;;;;;4965129;28;20031;-46
2023/12/10 02:33:14;;;;;;;6.10;2.83;;;23.10;99.90;;;;;;4977133;28;20021;-47
2023/12/10 02:35:40;;;;;;;3.53;2.22;;;23.10;99.90;;;;;;4976968;28;20043;-46
2023/12/10 02:38:05;;;;;;;4.07;1.90;;;23.10;99.90;;;;;;4985480;28;20078;-46
2023/12/10 02:40:31;;;;;;;3.70;2.20;;;23.10;99.90;;;;;;4982916;28;20391;-45
2023/12/10 02:42:57;;;;;;;3.97;2.30;;;23.10;99.90;;;;;;4975689;28;20543;-46
2023/12/10 02:45:23;;;;;;;2.83;1.95;;;23.10;99.90;;;;;;4976497;28;20086;-45
2023/12/10 02:47:49;;;;;;;3.45;2.10;;;23.00;99.90;;;;;;4976034;28;20035;-47
2023/12/10 02:50:14;;;;;;;3.60;2.08;;;23.00;99.90;;;;;;4975485;28;20023;-44
2023/12/10 02:52:40;;;;;;;3.67;2.20;;;23.00;99.90;;;;;;4986760;28;20390;-45
2023/12/10 02:55:09;;;;;;;8.43;2.15;;;23.00;99.90;;;;;;4976286;28;20118;-45
2023/12/10 02:57:35;;;;;;;2.65;1.83;;;23.00;99.90;;;;;;4990668;28;20443;-45
2023/12/10 03:00:01;;;;;;;4.55;2.22;;;23.00;99.90;;;;;;4975897;28;20102;-44
2023/12/10 03:02:26;;;;;;;2.75;1.75;;;23.00;99.90;;;;;;4976570;28;20050;-45
2023/12/10 03:04:52;;;;;;;4.32;1.95;;;23.00;99.90;;;;;;4975431;28;20101;-47
2023/12/10 03:07:18;;;;;;;2.97;2.03;;;23.00;99.90;;;;;;4975786;28;20039;-46
2023/12/10 03:09:44;;;;;;;4.00;2.05;;;23.00;99.90;;;;;;4975682;28;20165;-46
2023/12/10 03:12:10;;;;;;;5.80;2.10;;;23.00;99.90;;;;;;4975513;28;20107;-45
2023/12/10 03:14:36;;;;;;;3.67;2.15;;;23.00;99.90;;;;;;4975775;28;20106;-46
2023/12/10 03:17:02;;;;;;;8.30;2.03;;;23.00;99.90;;;;;;4974026;28;20538;-46
2023/12/10 03:19:28;;;;;;;4.47;2.03;;;23.00;99.90;;;;;;4974610;28;20018;-46
2023/12/10 03:21:53;;;;;;;1.98;1.33;;;23.00;99.90;;;;;;4975555;28;20027;-45
2023/12/10 03:24:19;;;;;;;2.65;1.77;;;23.00;99.90;;;;;;4974452;28;20033;-46
2023/12/10 03:26:45;;;;;;;3.90;1.92;;;22.90;99.90;;;;;;4983714;28;20526;-46
2023/12/10 03:29:11;;;;;;;3.13;1.67;;;23.00;99.90;;;;;;4976919;28;20443;-46
2023/12/10 03:31:37;;;;;;;5.20;1.88;;;22.90;99.90;;;;;;4968347;28;20023;-45
2023/12/10 03:34:03;;;;;;;4.93;1.80;;;22.90;99.90;;;;;;4971102;28;20031;-45
2023/12/10 03:36:28;;;;;;;6.57;1.92;;;22.90;99.90;;;;;;4967555;28;20116;-45
2023/12/10 03:38:54;;;;;;;2.83;1.77;;;22.90;99.90;;;;;;4969099;28;20424;-45
2023/12/10 03:41:20;;;;;;;4.45;1.85;;;22.90;99.90;;;;;;4974347;28;20030;-46
2023/12/10 03:43:46;;;;;;;4.68;1.83;;;22.90;99.90;;;;;;4975244;28;20467;-45
2023/12/10 03:46:11;;;;;;;3.10;1.92;;;22.80;99.90;;;;;;4974913;28;20038;-45
2023/12/10 03:48:37;;;;;;;5.20;1.88;;;22.90;99.90;;;;;;4974944;28;20388;-46
2023/12/10 03:51:03;;;;;;;2.83;1.52;;;22.80;99.90;;;;;;4973986;28;20031;-46
2023/12/10 03:53:29;;;;;;;5.40;1.77;;;22.80;99.90;;;;;;4973678;28;20110;-46
2023/12/10 03:55:54;;;;;;;4.38;1.60;;;22.80;99.90;;;;;;4975192;28;20562;-46
2023/12/10 03:58:21;;;;;;;4.72;2.08;;;22.80;99.90;;;;;;4975176;28;20061;-46
2023/12/10 04:00:46;;;;;;;5.03;1.88;;;22.80;99.90;;;;;;4975009;28;20488;-45
2023/12/10 04:03:12;;;;;;;3.15;1.63;;;22.80;99.90;;;;;;4974941;28;20174;-46
2023/12/10 04:05:38;;;;;;;6.45;1.63;;;22.80;99.90;;;;;;4975202;28;20027;-45
2023/12/10 04:08:04;;;;;;;3.22;1.45;;;22.70;99.90;;;;;;4975175;28;20382;-45
2023/12/10 04:10:29;;;;;;;3.83;1.58;;;22.70;99.90;;;;;;4975210;28;20058;-45
2023/12/10 04:12:55;;;;;;;2.03;0.90;;;22.70;99.90;;;;;;4974931;28;20027;-46
2023/12/10 04:15:21;;;;;;;3.78;1.88;;;22.70;99.90;;;;;;4974725;28;20047;-45
2023/12/10 04:17:47;;;;;;;3.00;1.33;;;22.70;99.90;;;;;;4974819;28;20051;-45
2023/12/10 04:20:12;;;;;;;3.58;1.25;;;22.70;99.90;;;;;;4973425;28;20029;-45
2023/12/10 04:22:38;;;;;;;3.45;1.33;;;22.70;99.90;;;;;;4974782;28;20423;-46
2023/12/10 04:25:04;;;;;;;2.40;1.50;;;22.70;99.90;;;;;;4974726;28;20015;-45
2023/12/10 04:27:30;;;;;;;2.90;1.85;;;22.60;99.90;;;;;;4974778;28;20472;-45
2023/12/10 04:29:56;;;;;;;4.25;1.50;;;22.60;99.90;;;;;;4974553;28;20079;-45
2023/12/10 04:32:22;;;;;;;5.05;1.70;;;22.60;99.90;;;;;;4974086;28;20418;-46
2023/12/10 04:34:47;;;;;;;2.70;1.15;;;22.60;99.90;;;;;;4974512;28;20074;-46
2023/12/10 04:37:13;;;;;;;2.97;1.52;;;22.60;99.90;;;;;;4974492;28;20034;-46
2023/12/10 04:39:39;;;;;;;5.72;1.60;;;22.60;99.90;;;;;;4974418;28;20023;-46
2023/12/10 04:42:05;;;;;;;2.85;1.50;;;22.60;99.90;;;;;;4974630;28;20049;-46
2023/12/10 04:44:31;;;;;;;1.50;1.17;;;22.60;99.90;;;;;;4974652;28;20098;-46
2023/12/10 04:46:57;;;;;;;4.70;1.25;;;22.60;99.90;;;;;;4974258;28;20031;-46
2023/12/10 04:49:23;;;;;;;3.63;1.20;;;22.60;99.90;;;;;;4974365;28;20079;-46
2023/12/10 04:51:49;;;;;;;5.18;1.73;;;22.60;99.90;;;;;;4973062;28;20478;-46
2023/12/10 04:54:14;;;;;;;1.98;1.27;;;22.50;99.90;;;;;;4973436;28;20050;-45
2023/12/10 04:56:40;;;;;;;3.47;1.40;;;22.50;99.90;;;;;;4972380;28;20031;-46
2023/12/10 04:59:06;;;;;;;3.67;1.40;;;22.50;99.90;;;;;;4973478;28;20498;-45
2023/12/10 05:01:32;;;;;;;2.80;1.20;;;22.50;99.90;;;;;;4973142;28;20050;-45
2023/12/10 05:03:58;;;;;;;3.80;1.48;;;22.50;99.90;;;;;;4973144;28;20129;-45
2023/12/10 05:06:23;;;;;;;2.55;1.33;;;22.50;99.90;;;;;;4972763;28;20034;-45
2023/12/10 05:08:49;;;;;;;2.95;1.35;;;22.50;99.90;;;;;;4973453;28;20038;-45
2023/12/10 05:11:15;;;;;;;2.38;1.25;;;22.40;99.90;;;;;;4973460;28;20022;-46
2023/12/10 05:13:41;;;;;;;3.17;1.73;;;22.40;99.90;;;;;;4973973;28;20030;-46
2023/12/10 05:16:07;;;;;;;3.78;1.20;;;22.50;99.90;;;;;;4973711;28;20106;-46
2023/12/10 05:18:33;;;;;;;2.50;0.90;;;22.40;99.90;;;;;;4974265;28;20026;-45
2023/12/10 05:20:58;;;;;;;3.60;1.30;;;22.40;99.90;;;;;;4973877;28;20027;-46
2023/12/10 05:23:24;;;;;;;2.20;1.05;;;22.40;99.90;;;;;;4973822;28;20479;-46
2023/12/10 05:25:50;;;;;;;2.22;1.38;;;22.40;99.90;;;;;;4973773;28;20031;-46
2023/12/10 05:28:16;;;;;;;1.70;1.20;;;22.40;99.90;;;;;;4973779;28;20030;-46
2023/12/10 05:30:42;;;;;;;1.58;1.00;;;22.30;99.90;;;;;;4973579;28;20039;-46
2023/12/10 05:33:07;;;;;;;3.30;1.45;;;22.30;99.90;;;;;;4973682;28;20101;-45
2023/12/10 05:35:34;;;;;;;3.28;1.30;;;22.30;99.90;;;;;;4973805;28;20061;-46
2023/12/10 05:38:00;;;;;;;2.33;1.15;;;22.30;99.90;;;;;;4973609;28;20621;-46
2023/12/10 05:40:26;;;;;;;3.28;1.50;;;22.30;99.90;;;;;;4973517;28;20066;-46
2023/12/10 05:42:54;;;;;;;3.72;1.50;;;22.30;99.90;;;;;;4972706;28;20106;-46
2023/12/10 05:45:20;;;;;;;4.00;1.98;;;22.30;99.90;;;;;;4973663;28;20031;-45
2023/12/10 05:47:46;;;;;;;2.88;1.25;;;22.30;99.90;;;;;;4973512;28;20027;-46
2023/12/10 05:50:12;;;;;;;1.83;1.10;;;22.20;99.90;;;;;;4973572;28;20445;-46
2023/12/10 05:52:38;;;;;;;2.78;1.23;;;22.20;99.90;;;;;;4973450;28;20106;-45
2023/12/10 05:55:04;;;;;;;2.42;1.27;;;22.20;99.90;;;;;;4973606;28;20105;-44
2023/12/10 05:57:30;;;;;;;2.58;1.30;;;22.20;99.90;;;;;;4973337;28;20478;-46
2023/12/10 05:59:56;;;;;;;1.48;0.80;;;22.20;99.90;;;;;;4973370;28;20035;-45
2023/12/10 06:02:22;;;;;;;3.28;1.42;;;22.20;99.90;;;;;;4969859;28;20522;-45
2023/12/10 06:04:48;;;;;;;2.53;1.35;;;22.20;99.90;;;;;;4972464;28;20069;-44
2023/12/10 06:07:14;;;;;;;2.35;1.30;;;22.20;99.90;;;;;;4970854;28;20063;-47
2023/12/10 06:09:40;;;;;;;3.58;1.13;;;22.20;99.90;;;;;;4973163;28;20043;-45
2023/12/10 06:12:06;;;;;;;5.47;1.75;;;22.20;99.90;;;;;;4973414;28;20102;-45
2023/12/10 06:14:32;;;;;;;2.95;1.25;;;22.20;99.90;;;;;;4973367;28;20031;-46
2023/12/10 06:16:57;;;;;;;2.30;1.15;;;22.20;99.90;;;;;;4972356;28;20400;-45
2023/12/10 06:19:23;;;;;;;2.10;1.17;;;22.10;99.90;;;;;;4973250;28;20027;-45
2023/12/10 06:21:49;;;;;;;2.65;1.10;;;22.10;99.90;;;;;;4973222;28;20506;-45
2023/12/10 06:24:15;;;;;;;1.60;1.05;;;22.10;99.90;;;;;;4973242;28;20480;-45
2023/12/10 06:26:40;;;;;;;5.47;1.33;;;22.10;99.90;;;;;;4973126;28;20034;-45
2023/12/10 06:29:06;;;;;;;3.58;1.25;;;22.10;99.90;;;;;;4973667;28;21110;-45
2023/12/10 06:31:32;;;;;;;2.25;1.13;;;22.10;99.90;;;;;;4973295;28;20031;-45
2023/12/10 06:33:58;;;;;;;4.47;1.17;;;22.10;99.90;;;;;;4971728;28;20034;-45
2023/12/10 06:36:23;;;;;;;2.17;0.93;;;22.10;99.90;;;;;;4973003;28;20031;-45
2023/12/10 06:38:49;;;;;;;3.10;1.05;;;22.00;99.90;;;;;;4972970;28;20108;-45
2023/12/10 06:41:15;;;;;;;2.08;1.00;;;22.00;99.90;;;;;;4971850;28;20434;-45
2023/12/10 06:43:41;;;;;;;2.38;1.10;;;22.00;99.90;;;;;;4972991;28;20030;-45
2023/12/10 06:46:07;;;;;;;2.55;1.35;;;22.00;99.90;;;;;;4973153;28;20506;-45
2023/12/10 06:48:33;;;;;;;2.28;1.08;;;22.00;99.90;;;;;;4973014;28;20122;-45
2023/12/10 06:51:00;;;;;;;3.20;1.10;;;22.00;99.90;;;;;;4972890;28;20037;-45
2023/12/10 06:53:26;;;;;;;2.47;1.08;;;22.00;99.90;;;;;;4973096;28;20026;-46
2023/12/10 06:55:52;;;;;;;2.20;0.98;;;22.00;99.90;;;;;;4976347;28;20041;-46
2023/12/10 06:58:18;;;;;;;3.22;0.73;;;22.00;99.90;;;;;;4976338;28;20046;-46
2023/12/10 07:00:43;;;;;;;2.45;1.20;;;21.90;99.90;;;;;;4976338;28;20035;-45
2023/12/10 07:03:09;;;;;;;1.88;0.90;;;21.90;99.90;;;;;;4976252;28;20487;-45
2023/12/10 07:05:35;;;;;;;2.67;0.70;;;21.90;99.90;;;;;;4976282;28;20038;-45
2023/12/10 07:08:01;;;;;;;4.72;1.30;;;21.90;99.90;;;;;;4976146;28;20034;-45
2023/12/10 07:10:27;;;;;;;2.97;1.00;;;21.90;99.90;;;;;;4976281;28;20210;-45
2023/12/10 07:12:54;;;;;;;2.60;1.00;;;21.90;99.90;;;;;;4976079;28;20027;-45
2023/12/10 07:15:20;;;;;;;2.50;1.17;;;21.90;99.90;;;;;;4976020;28;20030;-45
2023/12/10 07:17:46;;;;;;;4.25;1.10;;;21.90;99.90;;;;;;4975944;28;20483;-45
2023/12/10 07:20:12;;;;;;;2.53;1.13;;;21.90;99.90;;;;;;4976095;28;20022;-45
2023/12/10 07:22:38;;;;;;;4.40;1.10;;;21.90;99.90;;;;;;4976212;28;20022;-46
2023/12/10 07:25:07;;;;;;;1.30;0.82;;;21.90;99.90;;;;;;4975793;28;20093;-46
2023/12/10 07:27:32;;;;;;;2.10;0.95;;;21.90;99.90;;;;;;4975852;28;20109;-46
2023/12/10 07:29:59;;;;;;;2.85;1.45;;;21.80;99.90;;;;;;4975703;28;20085;-46
2023/12/10 07:32:25;;;;;;;3.03;1.00;;;21.80;99.90;;;;;;4975914;28;20023;-45
2023/12/10 07:34:51;;;;;;;4.13;0.82;;;21.80;99.90;;;;;;4975635;28;20026;-46
2023/12/10 07:37:17;;;;;;;2.92;0.85;;;21.80;99.90;;;;;;4975651;28;20410;-45
2023/12/10 07:39:43;;;;;;;10.65;0.95;;;21.80;99.90;;;;;;4975549;28;20033;-45
2023/12/10 07:42:08;;;;;;;3.22;1.08;;;21.80;99.90;;;;;;4975654;28;20037;-45
2023/12/10 07:44:35;;;;;;;2.40;1.15;;;21.80;99.90;;;;;;4975450;28;20364;-45
2023/12/10 07:47:02;;;;;;;3.63;1.03;;;21.90;99.90;;;;;;4975568;28;20470;-46
2023/12/10 07:49:28;;;;;;;6.32;0.95;;;21.90;99.90;;;;;;4975303;28;20359;-46
2023/12/10 07:51:53;;;;;;;1.27;0.75;;;21.90;99.90;;;;;;4975361;28;20033;-46
2023/12/10 07:54:19;;;;;;;2.05;1.10;;;21.90;99.90;;;;;;4975303;28;20031;-47
2023/12/10 07:56:45;;;;;;;2.03;0.98;;;22.00;99.90;;;;;;4973880;28;20034;-46
2023/12/10 07:59:12;;;;;;;2.08;0.80;;;22.00;99.90;;;;;;4975349;28;20062;-45
2023/12/10 08:01:38;;;;;;;2.13;0.90;;;22.00;99.90;;;;;;4975376;28;20495;-45
2023/12/10 08:04:04;;;;;;;4.03;1.20;;;22.00;99.90;;;;;;4975249;28;20054;-46
2023/12/10 08:06:30;;;;;;;2.97;0.80;;;22.00;99.90;;;;;;4974316;28;20486;-46
2023/12/10 08:08:57;;;;;;;2.10;1.05;;;22.10;99.90;;;;;;4989650;28;20071;-46
2023/12/10 08:11:23;;;;;;;6.18;1.27;;;22.10;99.90;;;;;;4974999;28;20069;-46
2023/12/10 08:13:51;;;;;;;2.58;1.10;;;22.10;99.90;;;;;;4974881;28;20420;-45
2023/12/10 08:16:17;;;;;;;;;;;22.10;99.90;;;;;;4974096;28;20031;-45
2023/12/10 08:18:42;;;;;;;5.40;1.17;;;22.20;99.90;;;;;;4975043;28;19925;-46
2023/12/10 08:21:08;;;;;;;1.90;0.70;;;22.20;99.90;;;;;;4974806;28;20101;-46
2023/12/10 08:23:34;;;;;;;3.20;1.38;;;22.20;99.90;;;;;;4973520;28;20474;-50
2023/12/10 08:26:00;;;;;;;3.67;1.35;;;22.20;99.90;;;;;;4974744;28;20409;-47
2023/12/10 08:28:26;;;;;;;1.95;0.90;;;22.30;99.90;;;;;;4974744;28;20475;-47
2023/12/10 08:30:52;;;;;;;1.80;0.82;;;22.30;99.90;;;;;;4973502;28;20031;-47
2023/12/10 08:33:18;;;;;;;3.15;1.25;;;22.30;99.90;;;;;;4974609;28;20027;-47
2023/12/10 08:35:44;;;;;;;1.88;0.80;;;22.30;99.90;;;;;;4974669;28;20042;-47
2023/12/10 08:38:10;;;;;;;2.90;1.17;;;22.40;99.90;;;;;;4974512;28;20023;-46
2023/12/10 08:40:35;;;;;;;5.07;1.80;;;22.40;99.90;;;;;;4974390;28;20093;-44
2023/12/10 08:43:01;;;;;;;2.13;1.05;;;22.40;99.90;;;;;;4974279;28;20023;-46
2023/12/10 08:45:27;;;;;;;2.45;1.17;;;22.50;99.90;;;;;;4974264;28;20491;-46
2023/12/10 08:47:53;;;;;;;3.55;1.20;;;22.50;99.90;;;;;;4974317;28;20483;-46
2023/12/10 08:50:19;;;;;;;4.28;1.15;;;22.50;99.90;;;;;;4974028;28;20386;-45
2023/12/10 08:52:45;;;;;;;3.35;1.20;;;22.60;99.90;;;;;;4989188;28;20110;-45
2023/12/10 08:55:10;;;;;;;2.45;1.05;;;22.60;99.90;;;;;;4974324;28;20174;-45
2023/12/10 08:57:36;;;;;;;3.35;1.40;;;22.60;99.90;;;;;;4974144;28;20037;-45
2023/12/10 09:00:03;;;;;;;2.10;1.08;;;22.70;99.90;;;;;;4974047;28;20073;-46
2023/12/10 09:02:29;;;;;;;4.60;1.30;;;22.70;99.90;;;;;;4973884;28;20057;-46
2023/12/10 09:04:55;;;;;;;3.03;1.27;;;22.70;99.90;;;;;;4972839;28;20450;-46
2023/12/10 09:07:21;;;;;;;4.47;1.33;;;22.70;99.90;;;;;;4972593;28;20442;-52
2023/12/10 09:09:47;;;;;;;5.90;1.47;;;22.70;99.90;;;;;;4974035;28;20019;-47
2023/12/10 09:12:13;;;;;;;2.20;1.38;;;22.80;99.90;;;;;;4974257;28;20023;-46
2023/12/10 09:14:39;;;;;;;6.07;2.28;;;22.80;99.90;;;;;;4973754;28;20030;-47
2023/12/10 09:17:04;;;;;;;3.40;1.58;;;22.80;99.90;;;;;;4973635;28;20049;-46
2023/12/10 09:19:31;;;;;;;2.83;1.40;;;22.90;99.90;;;;;;4973708;28;20479;-45
2023/12/10 09:21:57;;;;;;;3.70;1.63;;;22.90;99.90;;;;;;4973769;28;20448;-45
2023/12/10 09:24:23;;;;;;;3.75;1.67;;;23.00;99.90;;;;;;4973869;28;20034;-46
2023/12/10 09:26:50;;;;;;;5.15;1.85;;;23.00;99.90;;;;;;4973666;28;20107;-45
2023/12/10 09:29:17;;;;;;;3.28;1.63;;;23.00;99.90;;;;;;4974015;28;20034;-46
2023/12/10 09:31:43;;;;;;;7.70;1.70;;;23.00;99.90;;;;;;4973910;28;20035;-45
2023/12/10 09:34:09;;;;;;;2.65;1.55;;;23.10;99.90;;;;;;4973699;28;20477;-46
2023/12/10 09:36:35;;;;;;;4.50;2.05;;;23.10;99.90;;;;;;4973477;28;20088;-46
2023/12/10 09:39:01;;;;;;;5.47;1.98;;;23.20;99.90;;;;;;4973663;28;20031;-45
2023/12/10 09:41:27;;;;;;;6.53;1.70;;;23.20;99.90;;;;;;4973577;28;20034;-45
2023/12/10 09:43:53;;;;;;;6.07;2.42;;;23.20;99.90;;;;;;4973571;28;20029;-45
2023/12/10 09:46:20;;;;;;;4.15;1.73;;;23.20;99.90;;;;;;4973502;28;20049;-45
2023/12/10 09:48:47;;;;;;;3.67;1.40;;;23.30;99.90;;;;;;4973604;28;20051;-45
2023/12/10 09:51:13;;;;;;;5.22;1.73;;;23.30;99.90;;;;;;4973644;28;20118;-45
2023/12/10 09:53:38;;;;;;;3.60;1.50;;;23.40;99.90;;;;;;4973331;28;20066;-45
2023/12/10 09:56:04;;;;;;;4.40;2.28;;;23.40;99.90;;;;;;4973381;28;20026;-45
2023/12/10 09:58:30;;;;;;;2.92;1.77;;;23.40;99.90;;;;;;4973394;28;20118;-45
2023/12/10 10:00:56;;;;;;;4.55;1.85;;;23.50;99.90;;;;;;4973190;28;20054;-46
2023/12/10 10:03:22;;;;;;;4.40;1.75;;;23.50;99.90;;;;;;4971893;28;20050;-44
2023/12/10 10:05:47;;;;;;;5.15;2.00;;;23.50;99.90;;;;;;4973467;28;20530;-45
2023/12/10 10:08:14;;;;;;;2.45;1.98;;;23.60;99.90;;;;;;4973263;28;20085;-44
2023/12/10 10:10:40;;;;;;;5.00;1.97;;;23.60;99.90;;;;;;4973419;28;20026;-45
2023/12/10 10:13:06;;;;;;;4.32;1.75;;;23.70;99.90;;;;;;4973262;28;20034;-45
2023/12/10 10:15:32;;;;;;;3.97;1.60;;;23.70;99.90;;;;;;4973093;28;20085;-45
2023/12/10 10:17:58;;;;;;;6.28;1.92;;;23.70;99.90;;;;;;4971804;28;20117;-45
2023/12/10 10:20:26;;;;;;;5.75;1.60;;;23.80;99.90;;;;;;4973111;28;20042;-45
2023/12/10 10:22:54;;;;;;;3.85;1.88;;;23.90;99.90;;;;;;4973166;28;20387;-45
2023/12/10 10:25:20;;;;;;;2.85;1.65;;;23.80;99.90;;;;;;4973346;28;20030;-45
2023/12/10 10:27:47;;;;;;;4.60;1.98;;;23.90;99.90;;;;;;4973407;28;20041;-46
2023/12/10 10:30:13;;;;;;;5.20;2.78;;;24.00;99.90;;;;;;4976123;28;20019;-45
2023/12/10 10:32:40;;;;;;;3.10;1.80;;;24.00;99.90;;;;;;4976592;28;20034;-45
2023/12/10 10:35:07;;;;;;;5.28;2.05;;;24.00;99.90;;;;;;4976665;28;20093;-45
2023/12/10 10:37:33;;;;;;;;;;;24.10;99.90;;;;;;4976982;28;20038;-45
2023/12/10 10:39:59;;;;;;;7.75;2.22;;;24.10;99.90;;;;;;4976662;28;20289;-46
2023/12/10 10:42:25;;;;;;;4.25;2.15;;;24.20;99.90;;;;;;4976296;28;20031;-45
2023/12/10 10:44:51;;;;;;;3.75;1.40;;;24.20;99.90;;;;;;4976178;28;20030;-45
2023/12/10 10:47:18;;;;;;;5.75;1.77;;;24.20;99.90;;;;;;4976587;28;20054;-45
2023/12/10 10:49:49;;;;;;;5.15;1.98;;;24.20;99.90;;;;;;4975218;28;20546;-46
2023/12/10 10:52:19;;;;;;;6.20;2.47;;;24.30;99.90;;;;;;4976009;28;20037;-45
2023/12/10 10:54:46;;;;;;;4.45;2.20;;;24.40;99.90;;;;;;4975718;28;20038;-45
2023/12/10 10:57:12;;;;;;;6.50;2.88;;;24.40;99.90;;;;;;4975308;28;20035;-45
2023/12/10 10:59:38;;;;;;;10.50;2.50;;;24.40;99.90;;;;;;4976182;28;20026;-46
2023/12/10 11:02:08;;;;;;;9.90;2.90;;;24.50;99.90;;;;;;4975977;28;20050;-46
2023/12/10 11:04:38;;;;;;;7.35;3.65;;;24.50;99.90;;;;;;4974558;28;20538;-45
2023/12/10 11:07:06;;;;;;;8.73;4.03;;;24.50;99.90;;;;;;4974844;28;20019;-45
2023/12/10 11:09:44;;;;;;;8.60;4.00;;;24.60;99.90;;;;;;4975633;28;20101;-45
2023/12/10 11:12:31;;;;;;;7.18;3.63;;;24.60;99.90;;;;;;4974487;28;20027;-44
2023/12/10 11:14:57;;;;;;;7.35;4.13;;;24.70;99.90;;;;;;4974848;28;20031;-44
2023/12/10 11:17:22;;;;;;;5.20;3.30;;;24.70;99.90;;;;;;4976048;28;20053;-46
2023/12/10 11:19:57;;;;;;;9.15;3.67;;;24.70;99.90;;;;;;4976231;28;20023;-45
2023/12/10 11:22:23;;;;;;;6.07;3.40;;;24.70;99.90;;;;;;4973189;28;20452;-46
2023/12/10 11:24:53;;;;;;;6.65;3.30;;;24.80;99.90;;;;;;4975459;28;20031;-46
2023/12/10 11:27:19;;;;;;;5.53;3.25;;;24.80;99.90;;;;;;4974782;28;20487;-46
2023/12/10 11:29:44;;;;;;;6.85;3.10;;;24.80;99.90;;;;;;4974597;28;20045;-45
2023/12/10 11:32:10;;;;;;;6.65;3.33;;;24.90;99.90;;;;;;4975237;28;20025;-45
2023/12/10 11:34:36;;;;;;;6.88;3.08;;;24.90;99.90;;;;;;4974881;28;20026;-44
2023/12/10 11:37:02;;;;;;;5.80;3.30;;;24.90;99.90;;;;;;4974907;28;20035;-46
2023/12/10 11:39:28;;;;;;;6.38;3.20;;;24.90;99.90;;;;;;4974973;28;20027;-46
2023/12/10 11:41:53;;;;;;;4.78;2.70;;;25.00;99.90;;;;;;4973698;28;20029;-45
2023/12/10 11:44:19;;;;;;;5.75;3.10;;;25.00;99.90;;;;;;4972538;28;20023;-45
2023/12/10 11:46:47;;;;;;;5.55;3.22;;;25.00;99.90;;;;;;4966924;28;20073;-45
2023/12/10 11:49:13;;;;;;;4.68;2.88;;;25.00;99.90;;;;;;4957505;28;20445;-43
2023/12/10 11:51:41;;;;;;;9.10;3.00;;;25.10;99.90;;;;;;4974093;28;20058;-44
2023/12/10 11:54:07;;;;;;;7.47;3.00;;;25.10;99.90;;;;;;4974737;28;20130;-45
2023/12/10 11:56:33;;;;;;;3.75;2.38;;;25.10;99.90;;;;;;4974310;28;20066;-44
2023/12/10 11:59:00;;;;;;;4.85;2.45;;;25.20;99.90;;;;;;4974540;28;20053;-44
2023/12/10 12:01:25;;;;;;;5.97;3.30;;;25.20;99.90;;;;;;4974377;28;20066;-46
2023/12/10 12:03:54;;;;;;;5.28;3.17;;;25.20;99.90;;;;;;4974484;28;20059;-44
2023/12/10 12:06:19;;;;;;;5.30;2.85;;;25.20;99.90;;;;;;4974269;28;20031;-45
2023/12/10 12:08:47;;;;;;;6.40;2.47;;;25.30;99.90;;;;;;4974129;28;20475;-45
2023/12/10 12:11:13;;;;;;;5.38;2.47;;;25.30;99.90;;;;;;4971377;28;20387;-45
2023/12/10 12:13:39;;;;;;;33.97;6.78;;;25.30;99.90;;;;;;4973754;28;20031;-45
2023/12/10 12:16:05;;;;;;;23.40;4.45;;;25.30;99.90;;;;;;4973858;28;20089;-44
2023/12/10 12:18:31;;;;;;;19.52;4.18;;;25.40;99.90;;;;;;4973297;28;20035;-45
2023/12/10 12:20:57;;;;;;;17.13;4.50;;;25.40;99.90;;;;;;4974236;28;20034;-45
2023/12/10 12:23:23;;;;;;;22.10;3.92;;;25.40;99.90;;;;;;4975045;28;20018;-46
2023/12/10 12:25:49;;;;;;;15.63;4.35;;;25.40;99.90;;;;;;4974100;28;20026;-46
2023/12/10 12:28:15;;;;;;;20.38;5.00;;;25.40;99.90;;;;;;4973646;28;20042;-44
2023/12/10 12:30:40;;;;;;;16.60;4.22;;;25.40;99.90;;;;;;4973853;28;20102;-44
2023/12/10 12:33:06;;;;;;;17.55;3.42;;;25.50;99.90;;;;;;4973859;28;20031;-46
2023/12/10 12:35:32;;;;;;;17.88;4.32;;;25.50;99.90;;;;;;4971166;28;20035;-47
2023/12/10 12:37:58;;;;;;;12.30;3.92;;;25.50;99.90;;;;;;4973696;28;20022;-45
2023/12/10 12:40:24;;;;;;;12.27;3.85;;;25.60;99.90;;;;;;4973228;28;20062;-45